createdAt,value
2022-10-27T00:00:11.067Z,84.16
2022-10-27T00:02:43.226Z,84.30
2022-10-27T00:05:10.814Z,84.39
2022-10-27T00:07:38.299Z,83.91
2022-10-27T00:10:05.956Z,84.00
2022-10-27T00:12:33.750Z,83.81
2022-10-27T00:15:00.884Z,83.77
2022-10-27T00:17:29.326Z,83.94
2022-10-27T00:19:56.883Z,84.17
2022-10-27T00:22:23.460Z,84.18
2022-10-27T00:24:49.978Z,84.35
2022-10-27T00:27:16.478Z,84.42
2022-10-27T00:29:44.627Z,84.74
2022-10-27T00:32:11.198Z,84.75
2022-10-27T00:34:37.689Z,84.59
2022-10-27T00:37:04.999Z,84.42
2022-10-27T00:39:32.436Z,84.54
2022-10-27T00:41:58.923Z,85.20
2022-10-27T00:44:32.927Z,84.62
2022-10-27T00:47:05.667Z,84.85
2022-10-27T00:49:55.445Z,84.58
2022-10-27T00:52:31.014Z,84.05
2022-10-27T00:55:05.942Z,83.93
2022-10-27T00:57:38.484Z,83.77
2022-10-27T01:00:06.524Z,83.98
2022-10-27T01:02:34.831Z,83.83
2022-10-27T01:05:08.415Z,83.76
2022-10-27T01:07:35.875Z,83.65
2022-10-27T01:10:03.178Z,83.52
2022-10-27T01:12:30.401Z,83.68
2022-10-27T01:14:56.953Z,83.74
2022-10-27T01:18:11.183Z,83.91
2022-10-27T01:20:41.094Z,83.97
2022-10-27T01:23:16.609Z,84.00
2022-10-27T01:26:14.226Z,83.85
2022-10-27T01:29:02.428Z,83.89
2022-10-27T01:31:53.776Z,83.76
2022-10-27T01:34:36.342Z,84.06
2022-10-27T01:37:20.283Z,83.90
2022-10-27T01:39:49.771Z,84.30
2022-10-27T01:42:26.178Z,84.22
2022-10-27T01:44:56.957Z,84.42
2022-10-27T01:47:24.108Z,84.67
2022-10-27T01:49:54.303Z,85.13
2022-10-27T01:52:46.190Z,84.90
2022-10-27T01:55:21.342Z,84.54
2022-10-27T01:58:03.424Z,84.74
2022-10-27T02:00:36.081Z,84.56
2022-10-27T02:03:15.103Z,84.33
2022-10-27T02:06:41.138Z,84.50
2022-10-27T02:09:27.959Z,84.31
2022-10-27T02:11:58.708Z,84.45
2022-10-27T02:14:25.524Z,84.29
2022-10-27T02:16:56.404Z,84.48
2022-10-27T02:19:27.051Z,84.50
2022-10-27T02:21:57.619Z,84.43
2022-10-27T02:24:24.534Z,84.50
2022-10-27T02:27:01.218Z,84.31
2022-10-27T02:29:39.455Z,84.55
2022-10-27T02:32:12.265Z,84.51
2022-10-27T02:34:40.030Z,84.83
2022-10-27T02:37:08.706Z,84.92
2022-10-27T02:39:35.504Z,84.91
2022-10-27T02:42:04.021Z,85.30
2022-10-27T02:44:30.602Z,85.19
2022-10-27T02:46:59.868Z,85.54
2022-10-27T02:49:28.499Z,85.01
2022-10-27T02:51:55.027Z,85.23
2022-10-27T02:54:22.346Z,85.41
2022-10-27T02:56:48.827Z,85.56
2022-10-27T02:59:15.427Z,85.51
2022-10-27T03:01:42.078Z,85.40
2022-10-27T03:04:08.761Z,85.54
2022-10-27T03:06:35.244Z,85.67
2022-10-27T03:09:02.444Z,85.51
2022-10-27T03:11:28.931Z,85.35
2022-10-27T03:13:55.469Z,85.31
2022-10-27T03:16:21.983Z,85.51
2022-10-27T03:18:48.951Z,85.48
2022-10-27T03:21:15.611Z,85.32
2022-10-27T03:23:42.456Z,85.70
2022-10-27T03:26:09.493Z,85.14
2022-10-27T03:28:37.082Z,85.33
2022-10-27T03:31:06.614Z,85.70
2022-10-27T03:33:33.535Z,85.33
2022-10-27T03:36:00.109Z,85.85
2022-10-27T03:38:26.662Z,85.44
2022-10-27T03:40:53.184Z,85.03
2022-10-27T03:43:20.692Z,85.16
2022-10-27T03:45:50.509Z,84.75
2022-10-27T03:48:18.829Z,85.25
2022-10-27T03:50:50.071Z,84.28
2022-10-27T03:53:18.774Z,84.73
2022-10-27T03:55:47.611Z,83.90
2022-10-27T03:58:16.751Z,83.81
2022-10-27T04:00:43.963Z,84.13
2022-10-27T04:03:10.641Z,83.43
2022-10-27T04:05:37.233Z,84.05
2022-10-27T04:08:05.452Z,84.28
2022-10-27T04:10:32.299Z,84.37
2022-10-27T04:12:58.915Z,84.34
2022-10-27T04:15:28.416Z,84.60
2022-10-27T04:17:56.601Z,84.54
2022-10-27T04:20:23.956Z,84.28
2022-10-27T04:22:51.293Z,84.68
2022-10-27T04:25:18.077Z,84.62
2022-10-27T04:27:44.610Z,84.23
2022-10-27T04:30:11.696Z,83.94
2022-10-27T04:32:38.297Z,84.42
2022-10-27T04:35:06.653Z,84.68
2022-10-27T04:37:34.149Z,84.75
2022-10-27T04:40:00.856Z,84.65
2022-10-27T04:42:28.237Z,84.87
2022-10-27T04:44:55.461Z,84.96
2022-10-27T04:47:21.984Z,84.80
2022-10-27T04:49:48.498Z,85.24
2022-10-27T04:52:15.048Z,85.07
2022-10-27T04:54:41.569Z,85.30
2022-10-27T04:57:08.562Z,85.22
2022-10-27T04:59:38.398Z,84.83
2022-10-27T05:02:04.943Z,84.94
2022-10-27T05:04:31.463Z,85.10
2022-10-27T05:06:59.487Z,85.29
2022-10-27T05:09:26.133Z,85.02
2022-10-27T05:11:52.705Z,84.66
2022-10-27T05:14:19.291Z,84.64
2022-10-27T05:16:45.933Z,84.15
2022-10-27T05:19:12.419Z,84.25
2022-10-27T05:21:39.801Z,83.98
2022-10-27T05:24:06.434Z,84.36
2022-10-27T05:26:35.590Z,84.67
2022-10-27T05:29:05.370Z,84.17
2022-10-27T05:31:31.879Z,84.48
2022-10-27T05:36:26.499Z,84.50
2022-10-27T05:38:53.052Z,84.06
2022-10-27T05:41:19.586Z,84.26
2022-10-27T05:43:46.195Z,84.46
2022-10-27T05:46:12.730Z,84.85
2022-10-27T05:48:39.506Z,84.24
2022-10-27T05:51:06.178Z,84.18
2022-10-27T05:53:32.906Z,83.96
2022-10-27T05:55:59.455Z,84.67
2022-10-27T05:58:26.039Z,84.29
2022-10-27T06:00:52.561Z,84.02
2022-10-27T06:03:24.201Z,83.79
2022-10-27T06:05:51.837Z,84.03
2022-10-27T06:08:19.254Z,83.92
2022-10-27T06:10:47.109Z,84.10
2022-10-27T06:13:14.668Z,84.01
2022-10-27T06:15:41.949Z,83.40
2022-10-27T06:18:08.572Z,83.56
2022-10-27T06:20:35.224Z,83.30
2022-10-27T06:23:01.726Z,83.40
2022-10-27T06:25:28.494Z,82.76
2022-10-27T06:27:56.898Z,83.19
2022-10-27T06:30:23.473Z,82.47
2022-10-27T06:32:50.245Z,82.89
2022-10-27T06:35:17.137Z,82.44
2022-10-27T06:37:44.945Z,82.48
2022-10-27T06:40:14.168Z,82.19
2022-10-27T06:42:55.281Z,82.36
2022-10-27T06:45:27.584Z,81.84
2022-10-27T06:47:58.529Z,81.77
2022-10-27T06:50:25.137Z,81.57
2022-10-27T06:52:52.006Z,81.27
2022-10-27T06:55:19.550Z,81.38
2022-10-27T06:57:46.380Z,80.84
2022-10-27T07:00:14.569Z,81.06
2022-10-27T07:02:41.167Z,80.48
2022-10-27T07:05:08.999Z,80.10
2022-10-27T07:07:36.460Z,79.62
2022-10-27T07:10:05.055Z,77.49
2022-10-27T07:12:31.630Z,74.73
2022-10-27T07:14:58.301Z,72.45
2022-10-27T07:17:24.839Z,71.26
2022-10-27T07:19:51.343Z,70.96
2022-10-27T07:22:18.896Z,70.25
2022-10-27T07:24:46.521Z,68.85
2022-10-27T07:27:13.142Z,67.00
2022-10-27T07:29:39.824Z,65.37
2022-10-27T07:32:06.362Z,63.96
2022-10-27T07:34:32.895Z,63.31
2022-10-27T07:36:59.386Z,63.02
2022-10-27T07:39:26.534Z,61.40
2022-10-27T07:41:53.018Z,60.57
2022-10-27T07:44:19.561Z,59.97
2022-10-27T07:46:46.553Z,59.23
2022-10-27T07:49:13.977Z,57.89
2022-10-27T07:51:40.507Z,57.38
2022-10-27T07:54:07.545Z,57.33
2022-10-27T07:56:36.733Z,57.23
2022-10-27T07:59:04.374Z,57.26
2022-10-27T08:01:31.231Z,57.68
2022-10-27T08:03:57.870Z,57.00
2022-10-27T08:06:24.371Z,57.13
2022-10-27T08:08:52.541Z,56.01
2022-10-27T08:11:19.235Z,55.85
2022-10-27T08:13:45.867Z,55.26
2022-10-27T08:16:13.296Z,55.27
2022-10-27T08:18:39.893Z,54.93
2022-10-27T08:21:06.516Z,53.64
2022-10-27T08:23:33.223Z,53.50
2022-10-27T08:25:59.728Z,53.37
2022-10-27T08:28:27.138Z,53.62
2022-10-27T08:30:53.778Z,53.13
2022-10-27T08:33:22.116Z,52.34
2022-10-27T08:35:50.358Z,52.52
2022-10-27T08:38:19.564Z,52.25
2022-10-27T08:41:25.128Z,53.03
2022-10-27T08:44:04.544Z,53.10
2022-10-27T08:46:56.490Z,53.80
2022-10-27T08:49:48.619Z,54.17
2022-10-27T08:52:24.809Z,55.16
2022-10-27T08:55:01.558Z,55.43
2022-10-27T08:59:59.946Z,55.87
2022-10-27T09:02:57.338Z,56.10
2022-10-27T09:05:49.196Z,55.46
2022-10-27T09:08:22.051Z,56.14
2022-10-27T09:11:16.284Z,56.48
2022-10-27T09:16:49.353Z,57.31
2022-10-27T09:19:50.492Z,57.76
2022-10-27T09:22:19.108Z,57.78
2022-10-27T09:24:55.922Z,58.06
2022-10-27T09:27:22.623Z,58.68
2022-10-27T09:29:51.956Z,59.66
2022-10-27T09:32:30.237Z,59.92
2022-10-27T09:35:12.017Z,59.55
2022-10-27T09:37:43.059Z,59.43
2022-10-27T09:40:15.064Z,60.17
2022-10-27T09:42:42.394Z,59.86
2022-10-27T09:45:20.837Z,60.34
2022-10-27T09:47:54.756Z,60.69
2022-10-27T09:50:25.157Z,60.49
2022-10-27T09:52:52.210Z,59.88
2022-10-27T09:55:19.552Z,60.67
2022-10-27T09:57:48.612Z,60.63
2022-10-27T10:00:21.591Z,60.04
2022-10-27T10:03:05.843Z,60.75
2022-10-27T10:05:35.555Z,60.48
2022-10-27T10:08:12.800Z,60.22
2022-10-27T10:10:40.763Z,60.96
2022-10-27T10:13:13.921Z,60.07
2022-10-27T10:15:43.902Z,60.44
2022-10-27T10:18:29.148Z,60.33
2022-10-27T10:21:04.413Z,60.54
2022-10-27T10:23:35.129Z,59.83
2022-10-27T10:26:06.738Z,60.26
2022-10-27T10:28:42.744Z,60.39
2022-10-27T10:31:12.939Z,60.16
2022-10-27T10:33:42.404Z,59.67
2022-10-27T10:36:38.006Z,59.48
2022-10-27T10:39:23.548Z,59.63
2022-10-27T10:42:20.391Z,58.91
2022-10-27T10:44:49.395Z,58.73
2022-10-27T10:47:37.972Z,58.82
2022-10-27T10:50:12.410Z,58.58
2022-10-27T10:52:40.576Z,58.57
2022-10-27T10:55:34.232Z,58.97
2022-10-27T10:58:01.611Z,59.01
2022-10-27T11:00:28.706Z,58.44
2022-10-27T11:03:12.233Z,58.79
2022-10-27T11:05:40.919Z,58.44
2022-10-27T11:08:24.608Z,58.48
2022-10-27T11:10:55.804Z,58.37
2022-10-27T11:13:31.703Z,58.45
2022-10-27T11:16:04.601Z,58.34
2022-10-27T11:18:54.063Z,58.19
2022-10-27T11:21:28.269Z,58.16
2022-10-27T11:24:00.625Z,58.25
2022-10-27T11:26:38.494Z,58.03
2022-10-27T11:29:08.958Z,57.09
2022-10-27T11:31:49.220Z,56.74
2022-10-27T11:34:35.619Z,56.74
2022-10-27T11:37:08.152Z,56.59
2022-10-27T11:39:48.462Z,55.92
2022-10-27T11:42:39.026Z,56.24
2022-10-27T11:45:05.660Z,56.35
2022-10-27T11:48:09.180Z,56.09
2022-10-27T11:50:57.718Z,56.01
2022-10-27T11:53:24.439Z,56.00
2022-10-27T11:56:06.445Z,56.04
2022-10-27T11:58:39.121Z,56.22
2022-10-27T12:01:21.859Z,56.13
2022-10-27T12:04:08.244Z,56.03
2022-10-27T12:06:52.948Z,55.97
2022-10-27T12:09:30.861Z,55.48
2022-10-27T12:12:14.023Z,55.16
2022-10-27T12:15:03.410Z,54.86
2022-10-27T12:17:59.631Z,54.38
2022-10-27T12:21:01.092Z,54.60
2022-10-27T12:23:35.714Z,54.62
2022-10-27T12:26:07.284Z,54.28
2022-10-27T12:28:37.085Z,54.24
2022-10-27T12:31:13.068Z,54.72
2022-10-27T12:33:56.874Z,54.83
2022-10-27T12:36:39.251Z,54.47
2022-10-27T12:39:47.269Z,53.73
2022-10-27T12:42:39.531Z,53.18
2022-10-27T12:45:29.979Z,52.73
2022-10-27T12:48:29.718Z,52.81
2022-10-27T12:51:17.743Z,51.44
2022-10-27T12:53:49.522Z,51.60
2022-10-27T12:56:54.259Z,50.79
2022-10-27T12:59:35.152Z,50.59
2022-10-27T13:02:09.818Z,50.31
2022-10-27T13:04:51.708Z,50.97
2022-10-27T13:07:24.640Z,50.91
2022-10-27T13:10:07.879Z,50.70
2022-10-27T13:12:40.806Z,50.56
2022-10-27T13:15:46.059Z,50.58
2022-10-27T13:18:39.536Z,51.81
2022-10-27T13:21:14.452Z,52.47
2022-10-27T13:24:06.436Z,52.61
2022-10-27T13:26:52.035Z,52.50
2022-10-27T13:29:41.575Z,52.57
2022-10-27T13:32:20.346Z,52.31
2022-10-27T13:35:02.428Z,52.35
2022-10-27T13:37:40.814Z,52.54
2022-10-27T13:40:30.143Z,52.38
2022-10-27T13:43:21.703Z,52.75
2022-10-27T13:45:50.079Z,52.99
2022-10-27T13:48:16.552Z,53.51
2022-10-27T13:50:57.215Z,53.26
2022-10-27T13:53:24.105Z,53.38
2022-10-27T13:55:59.642Z,53.57
2022-10-27T13:58:53.020Z,54.16
2022-10-27T14:01:46.820Z,54.31
2022-10-27T14:04:43.407Z,54.24
2022-10-27T14:07:14.746Z,54.46
2022-10-27T14:09:51.416Z,54.26
2022-10-27T14:12:35.596Z,54.38
2022-10-27T14:15:11.320Z,54.79
2022-10-27T14:17:43.754Z,54.46
2022-10-27T14:20:21.758Z,55.20
2022-10-27T14:22:53.695Z,55.43
2022-10-27T14:25:46.908Z,56.00
2022-10-27T14:28:15.682Z,56.51
2022-10-27T14:30:43.879Z,56.54
2022-10-27T14:33:36.783Z,56.49
2022-10-27T14:36:18.227Z,56.93
2022-10-27T14:38:53.207Z,56.97
2022-10-27T14:41:21.809Z,57.08
2022-10-27T14:43:52.873Z,56.93
2022-10-27T14:46:23.421Z,56.92
2022-10-27T14:48:59.460Z,57.02
2022-10-27T14:51:27.978Z,56.96
2022-10-27T14:53:56.925Z,57.25
2022-10-27T14:56:29.439Z,57.27
2022-10-27T14:58:59.316Z,57.59
2022-10-27T15:01:34.500Z,57.64
2022-10-27T15:04:15.428Z,57.70
2022-10-27T15:06:46.664Z,58.08
2022-10-27T15:09:33.404Z,58.21
2022-10-27T15:12:07.683Z,58.55
2022-10-27T15:14:38.132Z,58.65
2022-10-27T15:17:06.368Z,58.80
2022-10-27T15:19:35.200Z,58.79
2022-10-27T15:22:04.043Z,58.94
2022-10-27T15:24:31.212Z,59.24
2022-10-27T15:26:58.028Z,59.17
2022-10-27T15:29:24.741Z,59.29
2022-10-27T15:31:59.347Z,59.95
2022-10-27T15:34:36.218Z,59.75
2022-10-27T15:37:30.784Z,59.82
2022-10-27T15:40:22.655Z,59.91
2022-10-27T15:42:50.791Z,60.39
2022-10-27T15:45:40.543Z,62.59
2022-10-27T15:48:35.153Z,63.13
2022-10-27T15:51:06.570Z,62.66
2022-10-27T15:53:57.175Z,62.40
2022-10-27T15:56:37.006Z,62.37
2022-10-27T15:59:19.657Z,62.64
2022-10-27T16:01:49.591Z,62.40
2022-10-27T16:04:30.478Z,62.57
2022-10-27T16:07:12.355Z,63.08
2022-10-27T16:09:46.958Z,64.39
2022-10-27T16:12:16.997Z,65.00
2022-10-27T16:14:50.496Z,64.66
2022-10-27T16:17:20.886Z,64.27
2022-10-27T16:19:48.427Z,63.75
2022-10-27T16:22:20.442Z,63.78
2022-10-27T16:24:47.737Z,64.19
2022-10-27T16:27:25.761Z,64.34
2022-10-27T16:29:56.715Z,64.59
2022-10-27T16:32:30.706Z,64.64
2022-10-27T16:34:58.068Z,64.82
2022-10-27T16:37:27.206Z,65.17
2022-10-27T16:39:54.751Z,64.80
2022-10-27T16:42:21.861Z,64.89
2022-10-27T16:47:20.791Z,65.09
2022-10-27T16:49:48.734Z,65.34
2022-10-27T16:52:15.804Z,65.20
2022-10-27T16:54:42.554Z,65.41
2022-10-27T16:57:10.883Z,65.25
2022-10-27T16:59:37.480Z,65.41
2022-10-27T17:02:04.229Z,65.28
2022-10-27T17:04:30.976Z,65.95
2022-10-27T17:06:57.513Z,66.01
2022-10-27T17:09:24.718Z,66.32
2022-10-27T17:11:51.704Z,66.27
2022-10-27T17:14:18.372Z,66.37
2022-10-27T17:16:45.872Z,67.40
2022-10-27T17:19:12.465Z,67.58
2022-10-27T17:21:39.191Z,69.80
2022-10-27T17:24:06.288Z,71.71
2022-10-27T17:26:33.309Z,71.39
2022-10-27T17:29:00.031Z,71.51
2022-10-27T17:31:28.512Z,72.18
2022-10-27T17:33:59.603Z,72.01
2022-10-27T17:36:28.164Z,70.96
2022-10-27T17:38:55.392Z,70.95
2022-10-27T17:41:22.358Z,70.56
2022-10-27T17:43:48.940Z,70.43
2022-10-27T17:46:18.032Z,70.54
2022-10-27T17:48:49.788Z,70.30
2022-10-27T17:51:21.826Z,69.98
2022-10-27T17:53:50.713Z,69.74
2022-10-27T17:56:19.728Z,69.63
2022-10-27T17:58:47.647Z,69.69
2022-10-27T18:01:23.064Z,69.64
2022-10-27T18:03:51.998Z,70.28
2022-10-27T18:06:21.186Z,70.70
2022-10-27T18:08:52.991Z,70.96
2022-10-27T18:11:27.114Z,71.28
2022-10-27T18:13:59.419Z,71.47
2022-10-27T18:16:31.321Z,71.54
2022-10-27T18:19:12.777Z,71.09
2022-10-27T18:21:41.943Z,71.43
2022-10-27T18:24:10.010Z,71.33
2022-10-27T18:26:39.747Z,71.20
2022-10-27T18:29:07.176Z,72.06
2022-10-27T18:31:38.241Z,72.42
2022-10-27T18:34:10.071Z,72.59
2022-10-27T18:36:37.882Z,72.77
2022-10-27T18:39:05.757Z,72.28
2022-10-27T18:41:36.528Z,72.77
2022-10-27T18:44:04.406Z,72.94
2022-10-27T18:46:31.120Z,73.02
2022-10-27T18:49:00.921Z,72.96
2022-10-27T18:51:30.655Z,72.93
2022-10-27T18:53:59.282Z,73.36
2022-10-27T18:56:26.324Z,73.79
2022-10-27T18:58:56.600Z,73.93
2022-10-27T19:01:25.344Z,74.27
2022-10-27T19:03:57.632Z,74.07
2022-10-27T19:06:25.222Z,74.62
2022-10-27T19:08:52.363Z,74.67
2022-10-27T19:11:22.820Z,74.46
2022-10-27T19:13:49.349Z,74.48
2022-10-27T19:16:20.790Z,74.99
2022-10-27T19:18:47.896Z,74.95
2022-10-27T19:21:16.784Z,75.47
2022-10-27T19:23:44.589Z,75.25
2022-10-27T19:26:13.882Z,75.34
2022-10-27T19:28:41.852Z,75.28
2022-10-27T19:31:14.588Z,75.42
2022-10-27T19:33:44.631Z,75.58
2022-10-27T19:36:16.386Z,75.88
2022-10-27T19:38:43.696Z,76.09
2022-10-27T19:41:12.850Z,75.93
2022-10-27T19:43:39.601Z,76.20
2022-10-27T19:46:07.369Z,76.59
2022-10-27T19:48:35.405Z,76.47
2022-10-27T19:51:17.723Z,76.42
2022-10-27T19:53:57.998Z,76.17
2022-10-27T19:56:38.536Z,76.23
2022-10-27T19:59:07.050Z,76.30
2022-10-27T20:01:46.131Z,75.89
2022-10-27T20:04:26.259Z,76.33
2022-10-27T20:06:53.712Z,76.11
2022-10-27T20:09:22.207Z,76.13
2022-10-27T20:11:49.379Z,76.51
2022-10-27T20:14:16.252Z,76.60
2022-10-27T20:16:45.475Z,76.69
2022-10-27T20:19:16.756Z,76.70
2022-10-27T20:21:44.026Z,76.30
2022-10-27T20:24:11.863Z,76.12
2022-10-27T20:26:40.910Z,75.89
2022-10-27T20:29:07.875Z,75.49
2022-10-27T20:31:35.522Z,75.71
2022-10-27T20:34:04.348Z,75.05
2022-10-27T20:36:32.173Z,74.58
2022-10-27T20:38:59.038Z,74.42
2022-10-27T20:41:26.973Z,74.58
2022-10-27T20:43:55.277Z,74.94
2022-10-27T20:46:23.433Z,75.29
2022-10-27T20:48:51.321Z,75.05
2022-10-27T20:51:18.516Z,75.59
2022-10-27T20:53:45.120Z,75.44
2022-10-27T20:56:31.303Z,75.42
2022-10-27T20:58:57.929Z,75.69
2022-10-27T21:01:24.579Z,75.62
2022-10-27T21:03:53.314Z,75.56
2022-10-27T21:06:20.169Z,75.13
2022-10-27T21:08:47.004Z,75.22
2022-10-27T21:11:13.620Z,75.36
2022-10-27T21:13:40.276Z,75.55
2022-10-27T21:16:06.979Z,75.39
2022-10-27T21:18:34.828Z,75.78
2022-10-27T21:21:13.703Z,75.37
2022-10-27T21:23:41.274Z,75.56
2022-10-27T21:26:09.675Z,75.56
2022-10-27T21:28:37.279Z,75.21
2022-10-27T21:31:13.732Z,75.30
2022-10-27T21:33:41.991Z,75.96
2022-10-27T21:36:09.730Z,75.92
2022-10-27T21:38:38.826Z,75.90
2022-10-27T21:41:06.340Z,76.25
2022-10-27T21:43:34.569Z,76.46
2022-10-27T21:46:02.803Z,76.37
2022-10-27T21:48:30.398Z,76.15
2022-10-27T21:50:57.478Z,75.62
2022-10-27T21:53:27.629Z,75.52
2022-10-27T21:55:59.169Z,75.30
2022-10-27T21:58:27.433Z,75.14
2022-10-27T22:00:54.128Z,75.04
2022-10-27T22:03:21.073Z,75.07
2022-10-27T22:05:55.319Z,74.78
2022-10-27T22:08:22.553Z,74.64
2022-10-27T22:10:50.325Z,74.52
2022-10-27T22:13:20.828Z,74.55
2022-10-27T22:15:47.421Z,74.31
2022-10-27T22:18:13.990Z,74.38
2022-10-27T22:20:40.609Z,74.25
2022-10-27T22:23:07.147Z,73.98
2022-10-27T22:25:40.141Z,74.06
2022-10-27T22:28:08.149Z,74.15
2022-10-27T22:30:37.560Z,73.85
2022-10-27T22:33:04.839Z,73.39
2022-10-27T22:35:32.515Z,73.22
2022-10-27T22:38:00.230Z,73.41
2022-10-27T22:40:27.804Z,72.82
2022-10-27T22:42:55.136Z,73.45
2022-10-27T22:45:21.704Z,73.44
2022-10-27T22:47:48.350Z,73.21
2022-10-27T22:50:14.987Z,73.60
2022-10-27T22:52:41.629Z,73.71
2022-10-27T22:55:09.478Z,73.80
2022-10-27T22:57:36.242Z,73.89
2022-10-27T23:00:04.152Z,73.76
2022-10-27T23:02:32.596Z,74.12
2022-10-27T23:04:59.141Z,74.65
2022-10-27T23:07:25.637Z,74.54
2022-10-27T23:09:52.149Z,74.86
2022-10-27T23:12:18.768Z,75.32
2022-10-27T23:14:47.538Z,75.29
2022-10-27T23:17:16.996Z,75.13
2022-10-27T23:19:43.483Z,75.64
2022-10-27T23:22:10.087Z,75.36
2022-10-27T23:24:36.588Z,75.12
2022-10-27T23:27:03.156Z,75.40
2022-10-27T23:29:30.016Z,75.81
2022-10-27T23:31:56.583Z,75.95
2022-10-27T23:34:23.114Z,75.83
2022-10-27T23:36:50.430Z,75.67
2022-10-27T23:39:17.817Z,75.48
2022-10-27T23:41:44.488Z,75.58
2022-10-27T23:44:11.256Z,75.42
2022-10-27T23:46:37.867Z,75.19
2022-10-27T23:49:04.478Z,75.01
2022-10-27T23:51:31.457Z,74.85
2022-10-27T23:53:58.005Z,74.42
2022-10-27T23:56:25.647Z,74.03
2022-10-27T23:58:52.388Z,74.04
